sensor_id;sensor_type;location;lat;lon;timestamp;P1;durP1;ratioP1;P2;durP2;ratioP2
54897;SDS011;40800;52.704;6.398;2023-02-15T00:01:25;35.20;;;32.50;;
54897;SDS011;40800;52.704;6.398;2023-02-15T00:03:51;32.13;;;29.83;;
54897;SDS011;40800;52.704;6.398;2023-02-15T00:06:17;32.58;;;30.27;;
54897;SDS011;40800;52.704;6.398;2023-02-15T00:08:43;35.13;;;32.45;;
54897;SDS011;40800;52.704;6.398;2023-02-15T00:11:10;36.58;;;33.47;;
54897;SDS011;40800;52.704;6.398;2023-02-15T00:13:36;38.15;;;35.00;;
54897;SDS011;40800;52.704;6.398;2023-02-15T00:18:31;34.80;;;32.10;;
54897;SDS011;40800;52.704;6.398;2023-02-15T00:20:57;33.40;;;30.70;;
54897;SDS011;40800;52.704;6.398;2023-02-15T00:23:23;35.72;;;33.03;;
54897;SDS011;40800;52.704;6.398;2023-02-15T00:25:49;36.17;;;33.28;;
54897;SDS011;40800;52.704;6.398;2023-02-15T00:28:15;36.50;;;33.60;;
54897;SDS011;40800;52.704;6.398;2023-02-15T00:30:40;34.20;;;31.60;;
54897;SDS011;40800;52.704;6.398;2023-02-15T00:33:06;32.80;;;30.40;;
54897;SDS011;40800;52.704;6.398;2023-02-15T00:35:32;37.55;;;34.75;;
54897;SDS011;40800;52.704;6.398;2023-02-15T00:37:57;38.15;;;35.15;;
54897;SDS011;40800;52.704;6.398;2023-02-15T00:40:23;36.80;;;34.00;;
54897;SDS011;40800;52.704;6.398;2023-02-15T00:42:48;40.33;;;37.13;;
54897;SDS011;40800;52.704;6.398;2023-02-15T00:45:14;40.25;;;37.08;;
54897;SDS011;40800;52.704;6.398;2023-02-15T00:47:40;39.47;;;36.38;;
54897;SDS011;40800;52.704;6.398;2023-02-15T00:50:05;37.80;;;34.80;;
54897;SDS011;40800;52.704;6.398;2023-02-15T00:52:31;124.75;;;44.75;;
54897;SDS011;40800;52.704;6.398;2023-02-15T00:54:57;39.35;;;36.17;;
54897;SDS011;40800;52.704;6.398;2023-02-15T00:57:22;40.08;;;36.75;;
54897;SDS011;40800;52.704;6.398;2023-02-15T00:59:48;41.15;;;37.60;;
54897;SDS011;40800;52.704;6.398;2023-02-15T01:02:14;42.53;;;38.93;;
54897;SDS011;40800;52.704;6.398;2023-02-15T01:04:40;44.65;;;40.78;;
54897;SDS011;40800;52.704;6.398;2023-02-15T01:07:05;42.70;;;38.80;;
54897;SDS011;40800;52.704;6.398;2023-02-15T01:09:31;44.38;;;40.47;;
54897;SDS011;40800;52.704;6.398;2023-02-15T01:11:56;45.70;;;41.70;;
54897;SDS011;40800;52.704;6.398;2023-02-15T01:14:22;41.13;;;37.63;;
54897;SDS011;40800;52.704;6.398;2023-02-15T01:16:47;43.47;;;39.78;;
54897;SDS011;40800;52.704;6.398;2023-02-15T01:19:13;40.55;;;37.17;;
54897;SDS011;40800;52.704;6.398;2023-02-15T01:21:39;40.75;;;37.28;;
54897;SDS011;40800;52.704;6.398;2023-02-15T01:24:10;39.60;;;36.40;;
54897;SDS011;40800;52.704;6.398;2023-02-15T01:26:39;41.30;;;37.83;;
54897;SDS011;40800;52.704;6.398;2023-02-15T01:29:04;41.50;;;38.03;;
54897;SDS011;40800;52.704;6.398;2023-02-15T01:31:30;43.25;;;39.72;;
54897;SDS011;40800;52.704;6.398;2023-02-15T01:33:56;41.88;;;38.42;;
54897;SDS011;40800;52.704;6.398;2023-02-15T01:36:21;41.58;;;38.20;;
54897;SDS011;40800;52.704;6.398;2023-02-15T01:38:47;41.60;;;38.30;;
54897;SDS011;40800;52.704;6.398;2023-02-15T01:41:14;54.75;;;43.08;;
54897;SDS011;40800;52.704;6.398;2023-02-15T01:43:52;40.65;;;37.40;;
54897;SDS011;40800;52.704;6.398;2023-02-15T01:46:22;140.02;;;46.50;;
54897;SDS011;40800;52.704;6.398;2023-02-15T01:48:55;42.92;;;39.33;;
54897;SDS011;40800;52.704;6.398;2023-02-15T01:51:26;42.65;;;39.05;;
54897;SDS011;40800;52.704;6.398;2023-02-15T01:53:56;42.05;;;38.47;;
54897;SDS011;40800;52.704;6.398;2023-02-15T01:56:27;43.42;;;39.72;;
54897;SDS011;40800;52.704;6.398;2023-02-15T01:58:56;43.88;;;40.20;;
54897;SDS011;40800;52.704;6.398;2023-02-15T02:01:27;43.38;;;39.78;;
54897;SDS011;40800;52.704;6.398;2023-02-15T02:03:59;45.95;;;42.08;;
54897;SDS011;40800;52.704;6.398;2023-02-15T02:06:33;42.92;;;39.42;;
54897;SDS011;40800;52.704;6.398;2023-02-15T02:09:01;43.08;;;39.55;;
54897;SDS011;40800;52.704;6.398;2023-02-15T02:11:27;143.85;;;52.58;;
54897;SDS011;40800;52.704;6.398;2023-02-15T02:13:53;43.88;;;40.08;;
54897;SDS011;40800;52.704;6.398;2023-02-15T02:36:15;46.92;;;42.75;;
54897;SDS011;40800;52.704;6.398;2023-02-15T02:38:50;50.08;;;45.47;;
54897;SDS011;40800;52.704;6.398;2023-02-15T02:44:13;46.80;;;42.70;;
54897;SDS011;40800;52.704;6.398;2023-02-15T02:46:48;47.38;;;42.97;;
54897;SDS011;40800;52.704;6.398;2023-02-15T02:49:15;47.05;;;43.03;;
54897;SDS011;40800;52.704;6.398;2023-02-15T02:51:40;46.13;;;42.28;;
54897;SDS011;40800;52.704;6.398;2023-02-15T02:54:06;45.88;;;41.88;;
54897;SDS011;40800;52.704;6.398;2023-02-15T02:56:36;45.40;;;41.50;;
54897;SDS011;40800;52.704;6.398;2023-02-15T02:59:11;46.20;;;42.25;;
54897;SDS011;40800;52.704;6.398;2023-02-15T03:04:27;48.92;;;44.67;;
54897;SDS011;40800;52.704;6.398;2023-02-15T03:07:00;48.13;;;44.10;;
54897;SDS011;40800;52.704;6.398;2023-02-15T03:09:33;47.90;;;43.90;;
54897;SDS011;40800;52.704;6.398;2023-02-15T03:12:06;49.50;;;45.47;;
54897;SDS011;40800;52.704;6.398;2023-02-15T03:14:38;50.28;;;46.10;;
54897;SDS011;40800;52.704;6.398;2023-02-15T03:17:05;49.63;;;45.42;;
54897;SDS011;40800;52.704;6.398;2023-02-15T03:19:33;51.20;;;46.70;;
54897;SDS011;40800;52.704;6.398;2023-02-15T03:22:03;52.63;;;47.72;;
54897;SDS011;40800;52.704;6.398;2023-02-15T03:24:41;53.72;;;48.70;;
54897;SDS011;40800;52.704;6.398;2023-02-15T03:27:13;54.50;;;49.40;;
54897;SDS011;40800;52.704;6.398;2023-02-15T03:29:48;55.80;;;50.20;;
54897;SDS011;40800;52.704;6.398;2023-02-15T03:32:19;55.05;;;49.88;;
54897;SDS011;40800;52.704;6.398;2023-02-15T03:34:45;57.00;;;51.67;;
54897;SDS011;40800;52.704;6.398;2023-02-15T03:39:52;56.53;;;51.33;;
54897;SDS011;40800;52.704;6.398;2023-02-15T03:42:54;54.90;;;49.70;;
54897;SDS011;40800;52.704;6.398;2023-02-15T03:45:26;54.10;;;49.10;;
54897;SDS011;40800;52.704;6.398;2023-02-15T03:47:55;54.28;;;49.25;;
54897;SDS011;40800;52.704;6.398;2023-02-15T03:50:27;53.78;;;48.75;;
54897;SDS011;40800;52.704;6.398;2023-02-15T03:53:16;52.13;;;47.47;;
54897;SDS011;40800;52.704;6.398;2023-02-15T03:55:48;52.22;;;47.53;;
54897;SDS011;40800;52.704;6.398;2023-02-15T03:58:18;51.78;;;47.25;;
54897;SDS011;40800;52.704;6.398;2023-02-15T04:01:04;51.92;;;47.30;;
54897;SDS011;40800;52.704;6.398;2023-02-15T04:03:56;51.72;;;47.03;;
54897;SDS011;40800;52.704;6.398;2023-02-15T04:06:26;50.70;;;46.13;;
54897;SDS011;40800;52.704;6.398;2023-02-15T04:08:51;52.17;;;47.63;;
54897;SDS011;40800;52.704;6.398;2023-02-15T04:11:36;51.78;;;47.13;;
54897;SDS011;40800;52.704;6.398;2023-02-15T04:14:01;52.00;;;47.38;;
54897;SDS011;40800;52.704;6.398;2023-02-15T04:16:47;50.15;;;45.80;;
54897;SDS011;40800;52.704;6.398;2023-02-15T04:19:12;60.10;;;50.45;;
54897;SDS011;40800;52.704;6.398;2023-02-15T04:21:56;102.30;;;50.30;;
54897;SDS011;40800;52.704;6.398;2023-02-15T04:24:40;50.63;;;45.88;;
54897;SDS011;40800;52.704;6.398;2023-02-15T04:27:25;51.30;;;46.75;;
54897;SDS011;40800;52.704;6.398;2023-02-15T04:29:50;52.55;;;47.67;;
54897;SDS011;40800;52.704;6.398;2023-02-15T04:32:16;53.08;;;48.28;;
54897;SDS011;40800;52.704;6.398;2023-02-15T04:34:41;51.97;;;47.35;;
54897;SDS011;40800;52.704;6.398;2023-02-15T04:37:07;51.47;;;46.80;;
54897;SDS011;40800;52.704;6.398;2023-02-15T04:39:33;50.28;;;45.90;;
54897;SDS011;40800;52.704;6.398;2023-02-15T04:41:58;52.22;;;47.58;;
54897;SDS011;40800;52.704;6.398;2023-02-15T04:44:24;54.38;;;49.38;;
54897;SDS011;40800;52.704;6.398;2023-02-15T04:46:49;84.40;;;55.55;;
54897;SDS011;40800;52.704;6.398;2023-02-15T04:49:15;50.13;;;45.83;;
54897;SDS011;40800;52.704;6.398;2023-02-15T04:51:40;52.30;;;47.78;;
54897;SDS011;40800;52.704;6.398;2023-02-15T04:54:06;50.78;;;46.40;;
54897;SDS011;40800;52.704;6.398;2023-02-15T04:56:32;51.72;;;47.42;;
54897;SDS011;40800;52.704;6.398;2023-02-15T04:58:59;51.58;;;47.28;;
54897;SDS011;40800;52.704;6.398;2023-02-15T05:01:25;50.97;;;46.55;;
54897;SDS011;40800;52.704;6.398;2023-02-15T05:03:51;51.38;;;46.90;;
54897;SDS011;40800;52.704;6.398;2023-02-15T05:06:16;52.55;;;47.58;;
54897;SDS011;40800;52.704;6.398;2023-02-15T05:08:42;53.50;;;48.58;;
54897;SDS011;40800;52.704;6.398;2023-02-15T05:11:07;55.33;;;50.13;;
54897;SDS011;40800;52.704;6.398;2023-02-15T05:13:33;53.75;;;49.05;;
54897;SDS011;40800;52.704;6.398;2023-02-15T05:15:59;53.25;;;48.55;;
54897;SDS011;40800;52.704;6.398;2023-02-15T05:18:24;120.72;;;73.15;;
54897;SDS011;40800;52.704;6.398;2023-02-15T05:20:50;59.03;;;53.10;;
54897;SDS011;40800;52.704;6.398;2023-02-15T05:23:16;59.03;;;53.03;;
54897;SDS011;40800;52.704;6.398;2023-02-15T05:25:45;61.97;;;55.47;;
54897;SDS011;40800;52.704;6.398;2023-02-15T05:28:30;61.60;;;54.97;;
54897;SDS011;40800;52.704;6.398;2023-02-15T05:33:38;59.63;;;53.40;;
54897;SDS011;40800;52.704;6.398;2023-02-15T05:36:04;58.30;;;52.70;;
54897;SDS011;40800;52.704;6.398;2023-02-15T05:38:30;55.80;;;50.65;;
54897;SDS011;40800;52.704;6.398;2023-02-15T05:40:56;54.35;;;49.33;;
54897;SDS011;40800;52.704;6.398;2023-02-15T05:43:22;56.03;;;50.78;;
54897;SDS011;40800;52.704;6.398;2023-02-15T05:45:49;56.50;;;51.22;;
54897;SDS011;40800;52.704;6.398;2023-02-15T05:48:16;53.83;;;48.78;;
54897;SDS011;40800;52.704;6.398;2023-02-15T05:50:42;53.97;;;49.22;;
54897;SDS011;40800;52.704;6.398;2023-02-15T05:53:08;55.30;;;50.40;;
54897;SDS011;40800;52.704;6.398;2023-02-15T05:55:33;56.58;;;51.33;;
54897;SDS011;40800;52.704;6.398;2023-02-15T05:58:01;55.22;;;50.33;;
54897;SDS011;40800;52.704;6.398;2023-02-15T06:00:27;53.42;;;48.58;;
54897;SDS011;40800;52.704;6.398;2023-02-15T06:02:53;54.03;;;49.25;;
54897;SDS011;40800;52.704;6.398;2023-02-15T06:05:18;55.75;;;50.45;;
54897;SDS011;40800;52.704;6.398;2023-02-15T06:07:44;56.58;;;51.25;;
54897;SDS011;40800;52.704;6.398;2023-02-15T06:10:10;55.43;;;50.43;;
54897;SDS011;40800;52.704;6.398;2023-02-15T06:12:36;54.50;;;49.75;;
54897;SDS011;40800;52.704;6.398;2023-02-15T06:15:02;56.65;;;51.60;;
54897;SDS011;40800;52.704;6.398;2023-02-15T06:17:28;56.33;;;51.17;;
54897;SDS011;40800;52.704;6.398;2023-02-15T06:19:54;58.28;;;52.75;;
54897;SDS011;40800;52.704;6.398;2023-02-15T06:22:19;60.55;;;54.85;;
54897;SDS011;40800;52.704;6.398;2023-02-15T06:24:45;59.65;;;54.17;;
54897;SDS011;40800;52.704;6.398;2023-02-15T06:27:11;61.63;;;56.00;;
54897;SDS011;40800;52.704;6.398;2023-02-15T06:29:37;61.90;;;56.28;;
54897;SDS011;40800;52.704;6.398;2023-02-15T06:32:03;61.03;;;55.60;;
54897;SDS011;40800;52.704;6.398;2023-02-15T06:34:29;60.13;;;54.60;;
54897;SDS011;40800;52.704;6.398;2023-02-15T06:36:55;61.95;;;56.13;;
54897;SDS011;40800;52.704;6.398;2023-02-15T06:39:21;61.40;;;55.63;;
54897;SDS011;40800;52.704;6.398;2023-02-15T06:41:47;57.80;;;52.57;;
54897;SDS011;40800;52.704;6.398;2023-02-15T06:44:12;59.15;;;53.55;;
54897;SDS011;40800;52.704;6.398;2023-02-15T06:46:38;61.25;;;55.55;;
54897;SDS011;40800;52.704;6.398;2023-02-15T06:49:04;62.38;;;56.38;;
54897;SDS011;40800;52.704;6.398;2023-02-15T06:51:29;61.28;;;55.58;;
54897;SDS011;40800;52.704;6.398;2023-02-15T06:53:55;61.85;;;56.05;;
54897;SDS011;40800;52.704;6.398;2023-02-15T06:56:20;61.88;;;55.95;;
54897;SDS011;40800;52.704;6.398;2023-02-15T06:58:46;62.08;;;56.28;;
54897;SDS011;40800;52.704;6.398;2023-02-15T07:01:14;61.03;;;54.92;;
54897;SDS011;40800;52.704;6.398;2023-02-15T07:03:40;63.28;;;56.90;;
54897;SDS011;40800;52.704;6.398;2023-02-15T07:06:05;60.40;;;54.42;;
54897;SDS011;40800;52.704;6.398;2023-02-15T07:08:33;84.10;;;77.38;;
54897;SDS011;40800;52.704;6.398;2023-02-15T07:11:00;61.13;;;54.92;;
54897;SDS011;40800;52.704;6.398;2023-02-15T07:13:45;66.28;;;59.25;;
54897;SDS011;40800;52.704;6.398;2023-02-15T07:16:11;60.20;;;53.88;;
54897;SDS011;40800;52.704;6.398;2023-02-15T07:18:37;60.30;;;54.15;;
54897;SDS011;40800;52.704;6.398;2023-02-15T07:21:03;60.10;;;54.20;;
54897;SDS011;40800;52.704;6.398;2023-02-15T07:23:32;63.97;;;57.38;;
54897;SDS011;40800;52.704;6.398;2023-02-15T07:26:02;63.08;;;56.78;;
54897;SDS011;40800;52.704;6.398;2023-02-15T07:28:28;65.53;;;59.22;;
54897;SDS011;40800;52.704;6.398;2023-02-15T07:30:54;64.18;;;57.58;;
54897;SDS011;40800;52.704;6.398;2023-02-15T07:33:20;64.05;;;57.67;;
54897;SDS011;40800;52.704;6.398;2023-02-15T07:35:49;62.78;;;56.42;;
54897;SDS011;40800;52.704;6.398;2023-02-15T07:38:16;64.88;;;58.15;;
54897;SDS011;40800;52.704;6.398;2023-02-15T07:40:42;63.35;;;57.15;;
54897;SDS011;40800;52.704;6.398;2023-02-15T07:43:08;65.77;;;59.23;;
54897;SDS011;40800;52.704;6.398;2023-02-15T07:45:34;65.10;;;58.72;;
54897;SDS011;40800;52.704;6.398;2023-02-15T07:48:00;63.45;;;57.17;;
54897;SDS011;40800;52.704;6.398;2023-02-15T07:50:27;62.85;;;56.55;;
54897;SDS011;40800;52.704;6.398;2023-02-15T07:52:53;64.63;;;58.00;;
54897;SDS011;40800;52.704;6.398;2023-02-15T07:55:19;63.67;;;57.47;;
54897;SDS011;40800;52.704;6.398;2023-02-15T07:57:45;64.15;;;57.53;;
54897;SDS011;40800;52.704;6.398;2023-02-15T08:00:12;64.50;;;58.20;;
54897;SDS011;40800;52.704;6.398;2023-02-15T08:02:40;65.55;;;59.03;;
54897;SDS011;40800;52.704;6.398;2023-02-15T08:05:06;68.32;;;61.33;;
54897;SDS011;40800;52.704;6.398;2023-02-15T08:07:32;64.90;;;58.28;;
54897;SDS011;40800;52.704;6.398;2023-02-15T08:09:58;65.80;;;59.53;;
54897;SDS011;40800;52.704;6.398;2023-02-15T08:12:25;68.70;;;61.83;;
54897;SDS011;40800;52.704;6.398;2023-02-15T08:14:52;71.20;;;64.00;;
54897;SDS011;40800;52.704;6.398;2023-02-15T08:17:17;72.20;;;64.60;;
54897;SDS011;40800;52.704;6.398;2023-02-15T08:19:43;67.03;;;60.50;;
54897;SDS011;40800;52.704;6.398;2023-02-15T08:22:10;70.93;;;63.72;;
54897;SDS011;40800;52.704;6.398;2023-02-15T08:24:37;74.63;;;66.55;;
54897;SDS011;40800;52.704;6.398;2023-02-15T08:27:04;72.75;;;65.45;;
54897;SDS011;40800;52.704;6.398;2023-02-15T08:29:31;75.55;;;67.80;;
54897;SDS011;40800;52.704;6.398;2023-02-15T08:31:58;73.00;;;65.40;;
54897;SDS011;40800;52.704;6.398;2023-02-15T08:34:28;77.57;;;68.80;;
54897;SDS011;40800;52.704;6.398;2023-02-15T08:36:55;75.95;;;68.03;;
54897;SDS011;40800;52.704;6.398;2023-02-15T08:39:21;74.18;;;66.60;;
54897;SDS011;40800;52.704;6.398;2023-02-15T08:41:47;75.35;;;67.63;;
54897;SDS011;40800;52.704;6.398;2023-02-15T08:44:14;72.80;;;65.50;;
54897;SDS011;40800;52.704;6.398;2023-02-15T08:46:42;76.85;;;69.07;;
54897;SDS011;40800;52.704;6.398;2023-02-15T08:49:09;79.07;;;70.63;;
54897;SDS011;40800;52.704;6.398;2023-02-15T08:51:40;75.72;;;68.43;;
54897;SDS011;40800;52.704;6.398;2023-02-15T08:54:08;76.97;;;69.20;;
54897;SDS011;40800;52.704;6.398;2023-02-15T08:56:37;72.15;;;64.95;;
54897;SDS011;40800;52.704;6.398;2023-02-15T08:59:04;75.35;;;67.45;;
54897;SDS011;40800;52.704;6.398;2023-02-15T09:01:31;75.95;;;68.35;;
54897;SDS011;40800;52.704;6.398;2023-02-15T09:04:00;78.35;;;70.55;;
54897;SDS011;40800;52.704;6.398;2023-02-15T09:06:29;80.03;;;72.13;;
54897;SDS011;40800;52.704;6.398;2023-02-15T09:08:55;77.13;;;69.88;;
54897;SDS011;40800;52.704;6.398;2023-02-15T09:11:28;75.88;;;68.75;;
54897;SDS011;40800;52.704;6.398;2023-02-15T09:13:56;79.25;;;71.28;;
54897;SDS011;40800;52.704;6.398;2023-02-15T09:16:24;76.63;;;69.13;;
54897;SDS011;40800;52.704;6.398;2023-02-15T09:18:52;81.07;;;73.05;;
54897;SDS011;40800;52.704;6.398;2023-02-15T09:21:19;81.03;;;72.95;;
54897;SDS011;40800;52.704;6.398;2023-02-15T09:23:47;77.43;;;69.93;;
54897;SDS011;40800;52.704;6.398;2023-02-15T09:26:15;78.22;;;70.57;;
54897;SDS011;40800;52.704;6.398;2023-02-15T09:28:46;78.50;;;70.80;;
54897;SDS011;40800;52.704;6.398;2023-02-15T09:31:17;78.22;;;70.65;;
54897;SDS011;40800;52.704;6.398;2023-02-15T09:33:44;79.43;;;71.35;;
54897;SDS011;40800;52.704;6.398;2023-02-15T09:36:18;77.45;;;70.05;;
54897;SDS011;40800;52.704;6.398;2023-02-15T09:38:46;76.07;;;68.85;;
54897;SDS011;40800;52.704;6.398;2023-02-15T09:41:21;74.47;;;66.95;;
54897;SDS011;40800;52.704;6.398;2023-02-15T09:57:43;67.85;;;61.45;;
54897;SDS011;40800;52.704;6.398;2023-02-15T10:05:40;63.17;;;56.83;;
54897;SDS011;40800;52.704;6.398;2023-02-15T10:08:39;62.50;;;56.30;;
54897;SDS011;40800;52.704;6.398;2023-02-15T10:17:03;63.30;;;56.75;;
54897;SDS011;40800;52.704;6.398;2023-02-15T10:25:01;60.72;;;54.28;;
54897;SDS011;40800;52.704;6.398;2023-02-15T10:27:38;59.72;;;53.47;;
54897;SDS011;40800;52.704;6.398;2023-02-15T10:30:17;58.13;;;52.10;;
54897;SDS011;40800;52.704;6.398;2023-02-15T10:33:15;57.20;;;51.50;;
54897;SDS011;40800;52.704;6.398;2023-02-15T10:38:36;56.20;;;50.25;;
54897;SDS011;40800;52.704;6.398;2023-02-15T10:57:18;51.80;;;46.20;;
54897;SDS011;40800;52.704;6.398;2023-02-15T11:05:45;49.45;;;43.50;;
54897;SDS011;40800;52.704;6.398;2023-02-15T11:08:20;47.53;;;42.28;;
54897;SDS011;40800;52.704;6.398;2023-02-15T11:10:59;47.78;;;42.60;;
54897;SDS011;40800;52.704;6.398;2023-02-15T11:13:31;49.28;;;43.30;;
54897;SDS011;40800;52.704;6.398;2023-02-15T11:16:04;49.20;;;43.13;;
54897;SDS011;40800;52.704;6.398;2023-02-15T11:18:40;47.50;;;42.10;;
54897;SDS011;40800;52.704;6.398;2023-02-15T11:21:31;46.92;;;41.65;;
54897;SDS011;40800;52.704;6.398;2023-02-15T11:24:14;44.30;;;39.53;;
54897;SDS011;40800;52.704;6.398;2023-02-15T11:26:46;44.83;;;39.60;;
54897;SDS011;40800;52.704;6.398;2023-02-15T11:29:25;45.45;;;39.58;;
54897;SDS011;40800;52.704;6.398;2023-02-15T11:34:52;44.63;;;39.72;;
54897;SDS011;40800;52.704;6.398;2023-02-15T11:37:23;43.08;;;38.15;;
54897;SDS011;40800;52.704;6.398;2023-02-15T11:39:54;43.35;;;37.60;;
54897;SDS011;40800;52.704;6.398;2023-02-15T11:42:20;44.10;;;39.30;;
54897;SDS011;40800;52.704;6.398;2023-02-15T11:45:34;44.03;;;37.45;;
54897;SDS011;40800;52.704;6.398;2023-02-15T11:47:47;42.42;;;36.55;;
54897;SDS011;40800;52.704;6.398;2023-02-15T11:50:18;42.80;;;37.33;;
54897;SDS011;40800;52.704;6.398;2023-02-15T11:52:48;41.10;;;34.92;;
54897;SDS011;40800;52.704;6.398;2023-02-15T11:55:21;39.67;;;33.03;;
54897;SDS011;40800;52.704;6.398;2023-02-15T11:57:51;40.03;;;33.33;;
54897;SDS011;40800;52.704;6.398;2023-02-15T12:00:43;40.72;;;32.53;;
54897;SDS011;40800;52.704;6.398;2023-02-15T12:06:11;40.83;;;31.27;;
54897;SDS011;40800;52.704;6.398;2023-02-15T12:08:42;37.83;;;29.02;;
54897;SDS011;40800;52.704;6.398;2023-02-15T12:11:17;38.05;;;28.83;;
54897;SDS011;40800;52.704;6.398;2023-02-15T12:16:25;38.25;;;29.08;;
54897;SDS011;40800;52.704;6.398;2023-02-15T12:18:53;38.15;;;29.65;;
54897;SDS011;40800;52.704;6.398;2023-02-15T12:21:39;39.25;;;29.50;;
54897;SDS011;40800;52.704;6.398;2023-02-15T12:24:23;39.65;;;29.73;;
54897;SDS011;40800;52.704;6.398;2023-02-15T12:29:35;39.50;;;29.50;;
54897;SDS011;40800;52.704;6.398;2023-02-15T12:32:05;38.47;;;29.90;;
54897;SDS011;40800;52.704;6.398;2023-02-15T12:34:37;39.85;;;28.88;;
54897;SDS011;40800;52.704;6.398;2023-02-15T12:37:10;37.70;;;28.45;;
54897;SDS011;40800;52.704;6.398;2023-02-15T12:40:00;37.33;;;28.80;;
54897;SDS011;40800;52.704;6.398;2023-02-15T12:42:43;37.80;;;29.02;;
54897;SDS011;40800;52.704;6.398;2023-02-15T12:45:29;36.63;;;28.50;;
54897;SDS011;40800;52.704;6.398;2023-02-15T12:50:37;38.30;;;29.10;;
54897;SDS011;40800;52.704;6.398;2023-02-15T12:53:13;38.70;;;28.92;;
54897;SDS011;40800;52.704;6.398;2023-02-15T12:58:51;40.70;;;28.85;;
54897;SDS011;40800;52.704;6.398;2023-02-15T13:01:31;36.75;;;29.17;;
54897;SDS011;40800;52.704;6.398;2023-02-15T13:06:28;36.30;;;27.90;;
54897;SDS011;40800;52.704;6.398;2023-02-15T13:08:57;37.17;;;28.58;;
54897;SDS011;40800;52.704;6.398;2023-02-15T13:11:31;37.28;;;28.63;;
54897;SDS011;40800;52.704;6.398;2023-02-15T13:14:03;37.00;;;28.25;;
54897;SDS011;40800;52.704;6.398;2023-02-15T13:16:45;36.08;;;27.98;;
54897;SDS011;40800;52.704;6.398;2023-02-15T13:21:57;36.40;;;28.60;;
54897;SDS011;40800;52.704;6.398;2023-02-15T13:24:33;36.65;;;28.40;;
54897;SDS011;40800;52.704;6.398;2023-02-15T13:27:20;36.08;;;28.17;;
54897;SDS011;40800;52.704;6.398;2023-02-15T13:29:50;35.33;;;26.30;;
54897;SDS011;40800;52.704;6.398;2023-02-15T13:32:34;30.88;;;25.02;;
54897;SDS011;40800;52.704;6.398;2023-02-15T13:35:03;38.63;;;28.83;;
54897;SDS011;40800;52.704;6.398;2023-02-15T13:45:54;34.13;;;25.83;;
54897;SDS011;40800;52.704;6.398;2023-02-15T13:51:09;36.35;;;26.75;;
54897;SDS011;40800;52.704;6.398;2023-02-15T14:07:29;35.63;;;25.83;;
54897;SDS011;40800;52.704;6.398;2023-02-15T14:13:31;33.20;;;24.73;;
54897;SDS011;40800;52.704;6.398;2023-02-15T14:21:47;34.13;;;25.65;;
54897;SDS011;40800;52.704;6.398;2023-02-15T14:24:21;31.85;;;24.77;;
54897;SDS011;40800;52.704;6.398;2023-02-15T14:35:05;32.13;;;24.67;;
54897;SDS011;40800;52.704;6.398;2023-02-15T14:37:43;34.25;;;24.58;;
54897;SDS011;40800;52.704;6.398;2023-02-15T14:45:55;35.97;;;26.05;;
54897;SDS011;40800;52.704;6.398;2023-02-15T14:48:30;34.53;;;25.35;;
54897;SDS011;40800;52.704;6.398;2023-02-15T14:50:59;33.15;;;24.25;;
54897;SDS011;40800;52.704;6.398;2023-02-15T15:01:29;32.75;;;25.27;;
54897;SDS011;40800;52.704;6.398;2023-02-15T15:04:07;32.10;;;24.58;;
54897;SDS011;40800;52.704;6.398;2023-02-15T15:06:40;35.03;;;26.10;;
54897;SDS011;40800;52.704;6.398;2023-02-15T15:11:46;37.97;;;26.13;;
54897;SDS011;40800;52.704;6.398;2023-02-15T15:16:57;32.63;;;24.90;;
54897;SDS011;40800;52.704;6.398;2023-02-15T15:22:18;34.60;;;24.98;;
54897;SDS011;40800;52.704;6.398;2023-02-15T15:33:23;35.20;;;25.90;;
54897;SDS011;40800;52.704;6.398;2023-02-15T15:41:53;36.47;;;26.27;;
54897;SDS011;40800;52.704;6.398;2023-02-15T15:47:29;34.40;;;25.85;;
54897;SDS011;40800;52.704;6.398;2023-02-15T15:50:17;36.17;;;26.52;;
54897;SDS011;40800;52.704;6.398;2023-02-15T15:52:46;38.17;;;27.30;;
54897;SDS011;40800;52.704;6.398;2023-02-15T15:55:18;36.28;;;27.13;;
54897;SDS011;40800;52.704;6.398;2023-02-15T15:57:49;33.90;;;26.67;;
54897;SDS011;40800;52.704;6.398;2023-02-15T16:00:36;37.60;;;26.88;;
54897;SDS011;40800;52.704;6.398;2023-02-15T16:03:16;36.45;;;26.65;;
54897;SDS011;40800;52.704;6.398;2023-02-15T16:05:47;36.75;;;26.83;;
54897;SDS011;40800;52.704;6.398;2023-02-15T16:08:25;37.60;;;27.90;;
54897;SDS011;40800;52.704;6.398;2023-02-15T16:10:55;38.85;;;27.95;;
54897;SDS011;40800;52.704;6.398;2023-02-15T16:13:22;37.83;;;27.75;;
54897;SDS011;40800;52.704;6.398;2023-02-15T16:15:53;37.88;;;27.65;;
54897;SDS011;40800;52.704;6.398;2023-02-15T16:18:23;39.67;;;28.95;;
54897;SDS011;40800;52.704;6.398;2023-02-15T16:20:58;40.60;;;28.45;;
54897;SDS011;40800;52.704;6.398;2023-02-15T16:23:32;40.33;;;27.58;;
54897;SDS011;40800;52.704;6.398;2023-02-15T16:28:51;40.83;;;29.23;;
54897;SDS011;40800;52.704;6.398;2023-02-15T16:31:18;37.08;;;27.77;;
54897;SDS011;40800;52.704;6.398;2023-02-15T16:33:47;39.30;;;29.17;;
54897;SDS011;40800;52.704;6.398;2023-02-15T16:41:12;37.53;;;28.75;;
54897;SDS011;40800;52.704;6.398;2023-02-15T16:43:40;42.70;;;29.85;;
54897;SDS011;40800;52.704;6.398;2023-02-15T16:46:10;38.42;;;28.75;;
54897;SDS011;40800;52.704;6.398;2023-02-15T16:48:39;39.38;;;28.83;;
54897;SDS011;40800;52.704;6.398;2023-02-15T16:51:08;41.58;;;29.25;;
54897;SDS011;40800;52.704;6.398;2023-02-15T16:53:34;41.50;;;29.67;;
54897;SDS011;40800;52.704;6.398;2023-02-15T16:58:36;43.92;;;30.58;;
54897;SDS011;40800;52.704;6.398;2023-02-15T17:01:07;44.10;;;31.70;;
54897;SDS011;40800;52.704;6.398;2023-02-15T17:03:35;40.35;;;30.35;;
54897;SDS011;40800;52.704;6.398;2023-02-15T17:06:02;42.10;;;30.25;;
54897;SDS011;40800;52.704;6.398;2023-02-15T17:14:10;40.97;;;29.80;;
54897;SDS011;40800;52.704;6.398;2023-02-15T17:19:26;42.90;;;32.50;;
54897;SDS011;40800;52.704;6.398;2023-02-15T17:22:01;41.20;;;30.77;;
54897;SDS011;40800;52.704;6.398;2023-02-15T17:24:43;42.05;;;30.90;;
54897;SDS011;40800;52.704;6.398;2023-02-15T17:27:20;40.33;;;30.45;;
54897;SDS011;40800;52.704;6.398;2023-02-15T17:29:50;41.45;;;30.75;;
54897;SDS011;40800;52.704;6.398;2023-02-15T17:32:28;42.47;;;31.27;;
54897;SDS011;40800;52.704;6.398;2023-02-15T17:37:29;46.13;;;31.67;;
54897;SDS011;40800;52.704;6.398;2023-02-15T17:42:48;43.40;;;32.63;;
54897;SDS011;40800;52.704;6.398;2023-02-15T17:45:14;43.95;;;31.17;;
54897;SDS011;40800;52.704;6.398;2023-02-15T17:47:40;42.73;;;33.43;;
54897;SDS011;40800;52.704;6.398;2023-02-15T17:50:06;43.93;;;34.43;;
54897;SDS011;40800;52.704;6.398;2023-02-15T17:52:33;46.47;;;33.38;;
54897;SDS011;40800;52.704;6.398;2023-02-15T17:55:01;44.20;;;33.30;;
54897;SDS011;40800;52.704;6.398;2023-02-15T17:57:56;46.33;;;34.25;;
54897;SDS011;40800;52.704;6.398;2023-02-15T18:00:22;46.90;;;33.42;;
54897;SDS011;40800;52.704;6.398;2023-02-15T18:03:08;46.90;;;35.40;;
54897;SDS011;40800;52.704;6.398;2023-02-15T18:05:54;45.45;;;33.97;;
54897;SDS011;40800;52.704;6.398;2023-02-15T18:08:39;48.05;;;34.60;;
54897;SDS011;40800;52.704;6.398;2023-02-15T18:11:23;45.85;;;35.30;;
54897;SDS011;40800;52.704;6.398;2023-02-15T18:14:07;46.97;;;36.47;;
54897;SDS011;40800;52.704;6.398;2023-02-15T18:16:35;46.03;;;36.60;;